createdAt,value
2022-12-26T00:04:49.051Z,1.05
2022-12-26T00:09:50.420Z,1.35
2022-12-26T00:14:52.220Z,1.30
2022-12-26T00:19:53.970Z,0.80
2022-12-26T00:24:55.946Z,0.88
2022-12-26T00:29:57.776Z,1.38
2022-12-26T00:34:59.640Z,1.13
2022-12-26T00:40:01.475Z,1.02
2022-12-26T00:45:03.824Z,1.00
2022-12-26T00:50:12.298Z,1.17
2022-12-26T00:55:17.367Z,1.00
2022-12-26T01:00:19.219Z,1.00
2022-12-26T01:05:24.313Z,1.17
2022-12-26T01:10:26.975Z,1.20
2022-12-26T01:15:28.873Z,1.13
2022-12-26T01:20:30.900Z,1.50
2022-12-26T01:25:32.744Z,0.90
2022-12-26T01:30:34.634Z,1.10
2022-12-26T01:35:36.492Z,1.27
2022-12-26T01:40:43.505Z,1.02
2022-12-26T01:45:51.205Z,1.10
2022-12-26T01:50:58.348Z,0.70
2022-12-26T02:01:08.395Z,0.90
2022-12-26T02:06:13.079Z,1.42
2022-12-26T02:11:24.073Z,1.30
2022-12-26T02:16:27.293Z,1.00
2022-12-26T02:21:32.136Z,0.93
2022-12-26T02:26:52.119Z,1.05
2022-12-26T02:32:10.014Z,1.30
2022-12-26T02:37:24.012Z,0.93
2022-12-26T02:42:39.103Z,1.15
2022-12-26T02:48:10.606Z,0.90
2022-12-26T02:53:47.017Z,1.02
2022-12-26T02:59:54.036Z,1.17
2022-12-26T03:05:18.325Z,1.10
2022-12-26T03:10:43.924Z,1.17
2022-12-26T03:16:13.972Z,0.90
2022-12-26T03:21:20.273Z,1.63
2022-12-26T03:26:41.114Z,1.38
2022-12-26T03:31:42.961Z,0.77
2022-12-26T03:37:20.487Z,1.05
2022-12-26T03:43:05.131Z,1.30
2022-12-26T03:48:47.577Z,1.42
2022-12-26T03:54:34.911Z,1.17
2022-12-26T04:00:17.338Z,1.00
2022-12-26T04:05:38.265Z,1.30
2022-12-26T04:11:02.664Z,1.13
2022-12-26T04:17:02.013Z,1.05
2022-12-26T04:27:50.106Z,1.10
2022-12-26T04:33:16.407Z,0.80
2022-12-26T04:38:41.391Z,1.13
2022-12-26T04:44:03.297Z,1.10
2022-12-26T04:49:26.346Z,0.95
2022-12-26T04:54:28.608Z,1.00
2022-12-26T04:59:30.560Z,1.02
2022-12-26T05:04:51.049Z,0.65
2022-12-26T05:09:53.834Z,0.95
2022-12-26T05:14:55.772Z,0.70
2022-12-26T05:20:16.470Z,1.00
2022-12-26T05:25:47.462Z,0.88
2022-12-26T05:30:49.735Z,0.90
2022-12-26T05:40:53.489Z,1.05
2022-12-26T05:45:55.430Z,0.90
2022-12-26T05:51:01.642Z,1.25
2022-12-26T05:56:10.326Z,1.20
2022-12-26T06:01:15.083Z,1.08
2022-12-26T06:06:17.611Z,1.08
2022-12-26T06:16:23.092Z,1.30
2022-12-26T06:21:25.283Z,1.17
2022-12-26T06:26:27.196Z,0.98
2022-12-26T06:31:29.067Z,1.13
2022-12-26T06:36:30.881Z,1.08
2022-12-26T06:41:32.654Z,1.25
2022-12-26T06:46:34.610Z,1.30
2022-12-26T06:51:36.565Z,1.38
2022-12-26T06:56:38.647Z,1.10
2022-12-26T07:01:40.715Z,1.13
2022-12-26T07:06:42.894Z,1.23
2022-12-26T07:11:50.205Z,1.42
2022-12-26T07:16:52.215Z,1.25
2022-12-26T07:21:54.189Z,1.00
2022-12-26T07:26:56.068Z,1.00
2022-12-26T07:31:59.226Z,1.27
2022-12-26T07:37:01.108Z,1.63
2022-12-26T07:42:02.928Z,1.10
2022-12-26T07:47:05.220Z,1.08
2022-12-26T07:52:07.062Z,1.20
2022-12-26T07:57:46.379Z,1.38
2022-12-26T08:02:32.110Z,1.13
2022-12-26T08:07:34.013Z,1.15
2022-12-26T08:12:36.850Z,1.20
2022-12-26T08:17:38.949Z,1.20
2022-12-26T08:22:40.815Z,1.10
2022-12-26T08:27:42.912Z,1.00
2022-12-26T08:32:46.366Z,1.23
2022-12-26T08:37:48.485Z,1.35
2022-12-26T08:43:12.094Z,1.13
2022-12-26T08:48:12.387Z,0.75
2022-12-26T08:53:14.109Z,1.00
2022-12-26T08:58:16.103Z,0.95
2022-12-26T09:03:18.323Z,0.93
2022-12-26T09:08:20.167Z,0.77
2022-12-26T09:13:22.174Z,1.17
2022-12-26T09:18:24.011Z,1.27
2022-12-26T09:23:25.830Z,1.50
2022-12-26T09:28:27.801Z,1.02
2022-12-26T09:33:33.365Z,1.25
2022-12-26T09:38:36.622Z,0.98
2022-12-26T09:43:50.359Z,1.23
2022-12-26T09:49:01.849Z,1.00
2022-12-26T09:54:07.987Z,1.17
2022-12-26T09:59:24.437Z,0.90
2022-12-26T10:04:30.558Z,1.08
2022-12-26T10:09:44.799Z,1.17
2022-12-26T10:15:02.943Z,1.17
2022-12-26T10:20:44.293Z,0.82
2022-12-26T10:25:51.996Z,1.13
2022-12-26T10:30:57.929Z,1.10
2022-12-26T10:36:00.433Z,1.10
2022-12-26T10:41:14.725Z,1.10
2022-12-26T10:46:28.376Z,0.98
2022-12-26T10:51:30.687Z,0.90
2022-12-26T10:56:32.539Z,0.80
2022-12-26T11:01:47.304Z,0.85
2022-12-26T11:06:52.885Z,0.90
2022-12-26T11:11:54.873Z,0.80
2022-12-26T11:17:03.379Z,0.80
2022-12-26T11:22:28.641Z,1.10
2022-12-26T11:27:30.473Z,0.75
2022-12-26T11:32:32.630Z,1.05
2022-12-26T11:37:41.805Z,0.88
2022-12-26T11:42:48.231Z,1.52
2022-12-26T11:47:50.981Z,1.02
2022-12-26T11:52:55.546Z,0.80
2022-12-26T11:58:09.582Z,0.80
2022-12-26T12:03:16.134Z,0.75
2022-12-26T12:08:39.121Z,1.00
2022-12-26T12:13:44.108Z,0.70
2022-12-26T12:18:51.872Z,0.90
2022-12-26T12:29:43.851Z,1.13
2022-12-26T12:35:19.614Z,0.73
2022-12-26T12:40:24.668Z,0.80
2022-12-26T12:45:59.024Z,0.57
2022-12-26T12:51:34.531Z,0.70
2022-12-26T12:56:42.459Z,0.90
2022-12-26T13:01:49.948Z,0.82
2022-12-26T13:07:33.279Z,0.95
2022-12-26T13:12:41.974Z,0.65
2022-12-26T13:17:55.186Z,0.70
2022-12-26T13:23:22.877Z,0.68
2022-12-26T13:28:31.960Z,0.50
2022-12-26T13:33:34.872Z,0.70
2022-12-26T13:38:58.653Z,0.80
2022-12-26T13:44:20.749Z,0.70
2022-12-26T13:49:27.269Z,0.80
2022-12-26T13:54:30.099Z,0.60
2022-12-26T13:59:58.112Z,0.60
2022-12-26T14:05:23.064Z,0.80
2022-12-26T14:11:02.091Z,0.70
2022-12-26T14:16:16.557Z,0.40
2022-12-26T14:21:27.202Z,0.38
2022-12-26T14:26:51.845Z,0.60
2022-12-26T14:32:12.283Z,0.57
2022-12-26T14:37:41.298Z,0.50
2022-12-26T14:43:12.919Z,0.50
2022-12-26T14:48:17.804Z,0.40
2022-12-26T14:53:28.370Z,0.32
2022-12-26T14:58:39.053Z,0.47
2022-12-26T15:04:05.498Z,0.50
2022-12-26T15:09:07.307Z,0.40
2022-12-26T15:14:09.210Z,0.90
2022-12-26T15:19:29.158Z,0.88
2022-12-26T15:25:17.662Z,0.90
2022-12-26T15:30:32.506Z,0.90
2022-12-26T15:35:36.573Z,0.70
2022-12-26T15:40:45.190Z,0.70
2022-12-26T15:46:14.478Z,0.65
2022-12-26T15:51:55.882Z,1.13
2022-12-26T15:57:03.874Z,0.77
2022-12-26T16:02:39.524Z,0.85
2022-12-26T16:07:52.663Z,0.90
2022-12-26T16:13:03.633Z,1.05
2022-12-26T16:18:32.929Z,0.90
2022-12-26T16:23:38.220Z,0.80
2022-12-26T16:28:44.557Z,0.70
2022-12-26T16:33:47.482Z,1.38
2022-12-26T16:38:50.551Z,0.93
2022-12-26T16:43:54.460Z,1.77
2022-12-26T16:49:00.371Z,1.40
2022-12-26T16:54:22.763Z,1.63
2022-12-26T16:59:28.357Z,1.40
2022-12-26T17:04:31.083Z,1.80
2022-12-26T17:09:43.605Z,1.55
2022-12-26T17:14:48.912Z,1.55
2022-12-26T17:19:54.351Z,1.05
2022-12-26T17:25:26.633Z,1.38
2022-12-26T17:30:31.773Z,0.98
2022-12-26T17:36:21.301Z,1.17
2022-12-26T17:41:01.550Z,1.27
2022-12-26T17:46:05.384Z,1.35
2022-12-26T17:51:12.487Z,1.13
2022-12-26T17:56:17.706Z,1.00
2022-12-26T18:01:21.930Z,0.80
2022-12-26T18:06:24.400Z,0.90
2022-12-26T18:11:26.299Z,0.98
2022-12-26T18:16:29.731Z,1.02
2022-12-26T18:21:31.571Z,1.20
2022-12-26T18:26:33.469Z,0.90
2022-12-26T18:31:35.372Z,0.70
2022-12-26T18:36:41.201Z,0.93
2022-12-26T18:41:43.618Z,0.68
2022-12-26T18:46:45.863Z,0.40
2022-12-26T18:51:47.645Z,0.40
2022-12-26T18:56:49.446Z,0.45
2022-12-26T19:01:51.437Z,0.40
2022-12-26T19:06:53.502Z,0.60
2022-12-26T19:11:55.405Z,0.45
2022-12-26T19:16:57.278Z,0.60
2022-12-26T19:21:59.315Z,0.40
2022-12-26T19:27:02.355Z,0.50
2022-12-26T19:32:04.562Z,0.50
2022-12-26T19:37:06.390Z,1.20
2022-12-26T19:42:08.168Z,0.55
2022-12-26T19:47:12.629Z,0.50
2022-12-26T19:52:15.109Z,0.57
2022-12-26T19:57:16.961Z,0.40
2022-12-26T20:02:18.971Z,0.40
2022-12-26T20:07:20.956Z,0.40
2022-12-26T20:12:22.978Z,0.25
2022-12-26T20:17:24.936Z,0.30
2022-12-26T20:22:27.270Z,0.40
2022-12-26T20:27:29.082Z,0.50
2022-12-26T20:32:30.854Z,0.70
2022-12-26T20:37:32.820Z,0.57
2022-12-26T20:42:34.582Z,0.32
2022-12-26T20:47:36.337Z,0.50
2022-12-26T20:52:38.104Z,0.70
2022-12-26T20:57:39.846Z,0.40
2022-12-26T21:02:41.670Z,0.73
2022-12-26T21:07:43.612Z,0.40
2022-12-26T21:12:45.871Z,0.60
2022-12-26T21:17:47.933Z,0.60
2022-12-26T21:22:49.753Z,0.50
2022-12-26T21:27:56.090Z,0.70
2022-12-26T21:33:00.911Z,0.57
2022-12-26T21:38:02.833Z,0.95
2022-12-26T21:43:04.719Z,1.23
2022-12-26T21:48:07.059Z,1.90
2022-12-26T21:53:10.280Z,1.48
2022-12-26T21:58:12.328Z,1.23
2022-12-26T22:03:32.608Z,1.98
2022-12-26T22:08:34.453Z,0.90
2022-12-26T22:13:42.348Z,0.70
2022-12-26T22:18:47.282Z,1.33
2022-12-26T22:23:50.722Z,0.88
2022-12-26T22:28:52.531Z,1.25
2022-12-26T22:34:05.381Z,0.80
2022-12-26T22:39:07.422Z,0.95
2022-12-26T22:44:09.942Z,1.30
2022-12-26T22:49:12.101Z,0.82
2022-12-26T22:54:14.624Z,1.00
2022-12-26T22:59:41.255Z,1.30
2022-12-26T23:04:38.686Z,1.55
2022-12-26T23:09:40.684Z,0.90
2022-12-26T23:14:42.627Z,1.05
2022-12-26T23:20:10.632Z,1.48
2022-12-26T23:25:12.544Z,1.85
2022-12-26T23:30:20.469Z,0.90
2022-12-26T23:40:24.776Z,0.90
2022-12-26T23:45:26.639Z,0.80
2022-12-26T23:50:28.849Z,1.15
2022-12-26T23:55:30.651Z,0.90
